sensor_id;sensor_type;location;lat;lon;timestamp;P1;durP1;ratioP1;P2;durP2;ratioP2
49510;SDS011;35413;48.776;9.204;2022-11-20T00:00:36;3.22;;;1.85;;
49510;SDS011;35413;48.776;9.204;2022-11-20T00:03:02;2.80;;;2.00;;
49510;SDS011;35413;48.776;9.204;2022-11-20T00:05:28;2.28;;;1.42;;
49510;SDS011;35413;48.776;9.204;2022-11-20T00:07:54;1.42;;;1.33;;
49510;SDS011;35413;48.776;9.204;2022-11-20T00:10:20;2.17;;;1.42;;
49510;SDS011;35413;48.776;9.204;2022-11-20T00:12:46;1.83;;;1.50;;
49510;SDS011;35413;48.776;9.204;2022-11-20T00:15:12;2.75;;;1.70;;
49510;SDS011;35413;48.776;9.204;2022-11-20T00:17:38;2.13;;;1.52;;
49510;SDS011;35413;48.776;9.204;2022-11-20T00:20:04;1.95;;;1.40;;
49510;SDS011;35413;48.776;9.204;2022-11-20T00:22:30;2.25;;;1.58;;
49510;SDS011;35413;48.776;9.204;2022-11-20T00:24:56;1.77;;;1.40;;
49510;SDS011;35413;48.776;9.204;2022-11-20T00:27:22;3.17;;;1.88;;
49510;SDS011;35413;48.776;9.204;2022-11-20T00:29:48;2.03;;;1.50;;
49510;SDS011;35413;48.776;9.204;2022-11-20T00:32:14;2.17;;;1.63;;
49510;SDS011;35413;48.776;9.204;2022-11-20T00:34:40;2.85;;;1.40;;
49510;SDS011;35413;48.776;9.204;2022-11-20T00:37:06;1.88;;;1.50;;
49510;SDS011;35413;48.776;9.204;2022-11-20T00:39:32;2.50;;;1.60;;
49510;SDS011;35413;48.776;9.204;2022-11-20T00:41:58;2.13;;;1.40;;
49510;SDS011;35413;48.776;9.204;2022-11-20T00:44:24;1.95;;;1.50;;
49510;SDS011;35413;48.776;9.204;2022-11-20T00:46:50;1.85;;;1.50;;
49510;SDS011;35413;48.776;9.204;2022-11-20T00:49:16;2.08;;;1.58;;
49510;SDS011;35413;48.776;9.204;2022-11-20T00:51:42;2.03;;;1.67;;
49510;SDS011;35413;48.776;9.204;2022-11-20T00:54:08;2.30;;;1.40;;
49510;SDS011;35413;48.776;9.204;2022-11-20T00:56:34;2.88;;;1.60;;
49510;SDS011;35413;48.776;9.204;2022-11-20T00:59:00;1.65;;;1.20;;
49510;SDS011;35413;48.776;9.204;2022-11-20T01:01:26;2.22;;;1.70;;
49510;SDS011;35413;48.776;9.204;2022-11-20T01:03:55;1.63;;;1.30;;
49510;SDS011;35413;48.776;9.204;2022-11-20T01:06:22;2.13;;;1.58;;
49510;SDS011;35413;48.776;9.204;2022-11-20T01:08:49;1.95;;;1.60;;
49510;SDS011;35413;48.776;9.204;2022-11-20T01:11:20;2.03;;;1.27;;
49510;SDS011;35413;48.776;9.204;2022-11-20T01:13:47;1.75;;;1.40;;
49510;SDS011;35413;48.776;9.204;2022-11-20T01:16:15;1.65;;;1.30;;
49510;SDS011;35413;48.776;9.204;2022-11-20T01:18:42;1.70;;;1.40;;
49510;SDS011;35413;48.776;9.204;2022-11-20T01:21:09;1.38;;;1.15;;
49510;SDS011;35413;48.776;9.204;2022-11-20T01:23:36;2.03;;;1.55;;
49510;SDS011;35413;48.776;9.204;2022-11-20T01:26:05;1.42;;;1.02;;
49510;SDS011;35413;48.776;9.204;2022-11-20T01:28:31;2.05;;;1.50;;
49510;SDS011;35413;48.776;9.204;2022-11-20T01:30:58;1.42;;;1.23;;
49510;SDS011;35413;48.776;9.204;2022-11-20T01:33:24;2.33;;;1.65;;
49510;SDS011;35413;48.776;9.204;2022-11-20T01:35:50;2.40;;;1.60;;
49510;SDS011;35413;48.776;9.204;2022-11-20T01:38:16;1.90;;;1.10;;
49510;SDS011;35413;48.776;9.204;2022-11-20T01:40:42;1.73;;;1.10;;
49510;SDS011;35413;48.776;9.204;2022-11-20T01:43:18;1.55;;;1.30;;
49510;SDS011;35413;48.776;9.204;2022-11-20T01:46:04;1.95;;;1.35;;
49510;SDS011;35413;48.776;9.204;2022-11-20T01:48:37;1.83;;;1.05;;
49510;SDS011;35413;48.776;9.204;2022-11-20T01:51:04;1.40;;;1.02;;
49510;SDS011;35413;48.776;9.204;2022-11-20T01:53:32;1.92;;;1.48;;
49510;SDS011;35413;48.776;9.204;2022-11-20T01:56:00;1.85;;;1.00;;
49510;SDS011;35413;48.776;9.204;2022-11-20T01:58:31;2.17;;;1.00;;
49510;SDS011;35413;48.776;9.204;2022-11-20T02:00:58;1.75;;;1.30;;
49510;SDS011;35413;48.776;9.204;2022-11-20T02:03:24;1.98;;;1.08;;
49510;SDS011;35413;48.776;9.204;2022-11-20T02:05:59;1.60;;;1.33;;
49510;SDS011;35413;48.776;9.204;2022-11-20T02:08:27;1.98;;;1.23;;
49510;SDS011;35413;48.776;9.204;2022-11-20T02:10:53;1.38;;;1.00;;
49510;SDS011;35413;48.776;9.204;2022-11-20T02:13:19;1.90;;;1.20;;
49510;SDS011;35413;48.776;9.204;2022-11-20T02:16:04;1.38;;;1.27;;
49510;SDS011;35413;48.776;9.204;2022-11-20T02:18:31;1.48;;;1.00;;
49510;SDS011;35413;48.776;9.204;2022-11-20T02:20:59;1.33;;;1.10;;
49510;SDS011;35413;48.776;9.204;2022-11-20T02:24:10;1.17;;;0.85;;
49510;SDS011;35413;48.776;9.204;2022-11-20T02:26:16;1.60;;;1.20;;
49510;SDS011;35413;48.776;9.204;2022-11-20T02:28:43;1.77;;;1.23;;
49510;SDS011;35413;48.776;9.204;2022-11-20T02:31:09;1.63;;;1.00;;
49510;SDS011;35413;48.776;9.204;2022-11-20T02:33:35;1.60;;;1.00;;
49510;SDS011;35413;48.776;9.204;2022-11-20T02:36:01;1.88;;;1.00;;
49510;SDS011;35413;48.776;9.204;2022-11-20T02:38:27;1.23;;;0.90;;
49510;SDS011;35413;48.776;9.204;2022-11-20T02:40:53;1.10;;;1.00;;
49510;SDS011;35413;48.776;9.204;2022-11-20T02:43:19;0.90;;;0.85;;
49510;SDS011;35413;48.776;9.204;2022-11-20T02:45:45;1.27;;;0.90;;
49510;SDS011;35413;48.776;9.204;2022-11-20T02:48:11;1.77;;;1.02;;
49510;SDS011;35413;48.776;9.204;2022-11-20T02:50:37;1.58;;;1.13;;
49510;SDS011;35413;48.776;9.204;2022-11-20T02:53:04;1.00;;;0.80;;
49510;SDS011;35413;48.776;9.204;2022-11-20T02:55:30;1.40;;;1.02;;
49510;SDS011;35413;48.776;9.204;2022-11-20T02:57:56;1.40;;;0.90;;
49510;SDS011;35413;48.776;9.204;2022-11-20T03:00:22;1.92;;;1.13;;
49510;SDS011;35413;48.776;9.204;2022-11-20T03:02:48;1.90;;;1.60;;
49510;SDS011;35413;48.776;9.204;2022-11-20T03:05:14;1.98;;;0.90;;
49510;SDS011;35413;48.776;9.204;2022-11-20T03:07:40;1.38;;;1.05;;
49510;SDS011;35413;48.776;9.204;2022-11-20T03:10:06;1.35;;;0.85;;
49510;SDS011;35413;48.776;9.204;2022-11-20T03:12:32;1.52;;;0.98;;
49510;SDS011;35413;48.776;9.204;2022-11-20T03:14:58;1.77;;;1.30;;
49510;SDS011;35413;48.776;9.204;2022-11-20T03:17:24;1.52;;;1.00;;
49510;SDS011;35413;48.776;9.204;2022-11-20T03:19:50;2.13;;;0.90;;
49510;SDS011;35413;48.776;9.204;2022-11-20T03:22:16;1.25;;;1.05;;
49510;SDS011;35413;48.776;9.204;2022-11-20T03:24:42;1.00;;;0.80;;
49510;SDS011;35413;48.776;9.204;2022-11-20T03:27:08;1.17;;;0.90;;
49510;SDS011;35413;48.776;9.204;2022-11-20T03:29:37;1.33;;;0.90;;
49510;SDS011;35413;48.776;9.204;2022-11-20T03:32:03;1.67;;;0.90;;
49510;SDS011;35413;48.776;9.204;2022-11-20T03:34:29;0.98;;;0.88;;
49510;SDS011;35413;48.776;9.204;2022-11-20T03:36:55;1.10;;;0.88;;
49510;SDS011;35413;48.776;9.204;2022-11-20T03:39:21;1.77;;;1.00;;
49510;SDS011;35413;48.776;9.204;2022-11-20T03:41:47;1.45;;;1.15;;
49510;SDS011;35413;48.776;9.204;2022-11-20T03:44:13;1.30;;;1.10;;
49510;SDS011;35413;48.776;9.204;2022-11-20T03:46:39;1.42;;;0.95;;
49510;SDS011;35413;48.776;9.204;2022-11-20T03:49:04;0.85;;;0.73;;
49510;SDS011;35413;48.776;9.204;2022-11-20T03:51:31;0.98;;;0.80;;
49510;SDS011;35413;48.776;9.204;2022-11-20T03:53:58;0.95;;;0.75;;
49510;SDS011;35413;48.776;9.204;2022-11-20T03:56:26;1.25;;;0.77;;
49510;SDS011;35413;48.776;9.204;2022-11-20T03:58:52;1.02;;;0.70;;
49510;SDS011;35413;48.776;9.204;2022-11-20T04:01:19;1.02;;;0.82;;
49510;SDS011;35413;48.776;9.204;2022-11-20T04:03:46;1.25;;;0.90;;
49510;SDS011;35413;48.776;9.204;2022-11-20T04:06:18;0.80;;;0.70;;
49510;SDS011;35413;48.776;9.204;2022-11-20T04:08:45;3.97;;;0.75;;
49510;SDS011;35413;48.776;9.204;2022-11-20T04:11:12;1.73;;;1.00;;
49510;SDS011;35413;48.776;9.204;2022-11-20T04:13:38;1.88;;;1.00;;
49510;SDS011;35413;48.776;9.204;2022-11-20T04:16:05;1.35;;;0.82;;
49510;SDS011;35413;48.776;9.204;2022-11-20T04:18:31;1.55;;;0.90;;
49510;SDS011;35413;48.776;9.204;2022-11-20T04:20:58;1.08;;;0.70;;
49510;SDS011;35413;48.776;9.204;2022-11-20T04:23:24;1.10;;;0.80;;
49510;SDS011;35413;48.776;9.204;2022-11-20T04:25:50;0.98;;;0.70;;
49510;SDS011;35413;48.776;9.204;2022-11-20T04:28:16;1.85;;;1.02;;
49510;SDS011;35413;48.776;9.204;2022-11-20T04:30:42;1.05;;;0.93;;
49510;SDS011;35413;48.776;9.204;2022-11-20T04:33:08;0.93;;;0.73;;
49510;SDS011;35413;48.776;9.204;2022-11-20T04:35:34;0.90;;;0.80;;
49510;SDS011;35413;48.776;9.204;2022-11-20T04:38:00;1.83;;;0.98;;
49510;SDS011;35413;48.776;9.204;2022-11-20T04:40:27;1.77;;;1.00;;
49510;SDS011;35413;48.776;9.204;2022-11-20T04:42:53;1.83;;;0.80;;
49510;SDS011;35413;48.776;9.204;2022-11-20T04:45:19;1.20;;;0.68;;
49510;SDS011;35413;48.776;9.204;2022-11-20T04:47:45;1.00;;;0.70;;
49510;SDS011;35413;48.776;9.204;2022-11-20T04:50:11;0.93;;;0.73;;
49510;SDS011;35413;48.776;9.204;2022-11-20T04:52:37;1.00;;;0.70;;
49510;SDS011;35413;48.776;9.204;2022-11-20T04:55:03;1.10;;;0.90;;
49510;SDS011;35413;48.776;9.204;2022-11-20T04:57:29;1.58;;;1.00;;
49510;SDS011;35413;48.776;9.204;2022-11-20T04:59:56;1.17;;;0.77;;
49510;SDS011;35413;48.776;9.204;2022-11-20T05:02:21;1.35;;;0.80;;
49510;SDS011;35413;48.776;9.204;2022-11-20T05:04:47;0.77;;;0.60;;
49510;SDS011;35413;48.776;9.204;2022-11-20T05:07:13;1.48;;;1.05;;
49510;SDS011;35413;48.776;9.204;2022-11-20T05:09:39;1.13;;;0.73;;
49510;SDS011;35413;48.776;9.204;2022-11-20T05:12:07;1.77;;;0.90;;
49510;SDS011;35413;48.776;9.204;2022-11-20T05:14:33;1.27;;;0.75;;
49510;SDS011;35413;48.776;9.204;2022-11-20T05:16:59;1.52;;;0.70;;
49510;SDS011;35413;48.776;9.204;2022-11-20T05:19:25;1.27;;;0.70;;
49510;SDS011;35413;48.776;9.204;2022-11-20T05:21:51;1.02;;;0.60;;
49510;SDS011;35413;48.776;9.204;2022-11-20T05:24:17;1.27;;;1.02;;
49510;SDS011;35413;48.776;9.204;2022-11-20T05:26:42;1.52;;;0.82;;
49510;SDS011;35413;48.776;9.204;2022-11-20T05:29:12;0.60;;;0.60;;
49510;SDS011;35413;48.776;9.204;2022-11-20T05:31:39;2.42;;;0.80;;
49510;SDS011;35413;48.776;9.204;2022-11-20T05:34:05;1.83;;;0.70;;
49510;SDS011;35413;48.776;9.204;2022-11-20T05:36:31;1.35;;;0.80;;
49510;SDS011;35413;48.776;9.204;2022-11-20T05:38:57;1.15;;;0.77;;
49510;SDS011;35413;48.776;9.204;2022-11-20T05:41:23;0.90;;;0.50;;
49510;SDS011;35413;48.776;9.204;2022-11-20T05:43:50;1.33;;;1.13;;
49510;SDS011;35413;48.776;9.204;2022-11-20T05:46:17;1.00;;;0.60;;
49510;SDS011;35413;48.776;9.204;2022-11-20T05:48:44;0.77;;;0.57;;
49510;SDS011;35413;48.776;9.204;2022-11-20T05:51:11;1.55;;;0.70;;
49510;SDS011;35413;48.776;9.204;2022-11-20T05:53:37;0.60;;;0.52;;
49510;SDS011;35413;48.776;9.204;2022-11-20T05:56:04;1.45;;;1.08;;
49510;SDS011;35413;48.776;9.204;2022-11-20T05:58:31;1.63;;;0.73;;
49510;SDS011;35413;48.776;9.204;2022-11-20T06:01:08;2.25;;;0.88;;
49510;SDS011;35413;48.776;9.204;2022-11-20T06:03:34;0.77;;;0.60;;
49510;SDS011;35413;48.776;9.204;2022-11-20T06:06:00;0.90;;;0.70;;
49510;SDS011;35413;48.776;9.204;2022-11-20T06:08:26;1.15;;;0.80;;
49510;SDS011;35413;48.776;9.204;2022-11-20T06:10:52;0.70;;;0.68;;
49510;SDS011;35413;48.776;9.204;2022-11-20T06:13:18;0.93;;;0.68;;
49510;SDS011;35413;48.776;9.204;2022-11-20T06:15:51;1.10;;;0.88;;
49510;SDS011;35413;48.776;9.204;2022-11-20T06:18:17;1.63;;;0.60;;
49510;SDS011;35413;48.776;9.204;2022-11-20T06:20:44;1.02;;;0.82;;
49510;SDS011;35413;48.776;9.204;2022-11-20T06:23:10;1.35;;;1.05;;
49510;SDS011;35413;48.776;9.204;2022-11-20T06:25:40;2.15;;;0.75;;
49510;SDS011;35413;48.776;9.204;2022-11-20T06:28:06;1.13;;;0.70;;
49510;SDS011;35413;48.776;9.204;2022-11-20T06:30:32;0.52;;;0.50;;
49510;SDS011;35413;48.776;9.204;2022-11-20T06:32:58;1.27;;;0.68;;
49510;SDS011;35413;48.776;9.204;2022-11-20T06:35:24;0.98;;;0.60;;
49510;SDS011;35413;48.776;9.204;2022-11-20T06:37:50;1.27;;;0.75;;
49510;SDS011;35413;48.776;9.204;2022-11-20T06:40:16;0.60;;;0.60;;
49510;SDS011;35413;48.776;9.204;2022-11-20T06:42:42;0.73;;;0.52;;
49510;SDS011;35413;48.776;9.204;2022-11-20T06:45:09;0.80;;;0.60;;
49510;SDS011;35413;48.776;9.204;2022-11-20T06:47:35;0.52;;;0.52;;
49510;SDS011;35413;48.776;9.204;2022-11-20T06:50:01;0.80;;;0.65;;
49510;SDS011;35413;48.776;9.204;2022-11-20T06:52:27;0.85;;;0.68;;
49510;SDS011;35413;48.776;9.204;2022-11-20T06:54:53;0.60;;;0.60;;
49510;SDS011;35413;48.776;9.204;2022-11-20T06:57:19;1.33;;;0.80;;
49510;SDS011;35413;48.776;9.204;2022-11-20T06:59:45;0.80;;;0.57;;
49510;SDS011;35413;48.776;9.204;2022-11-20T07:02:11;0.88;;;0.70;;
49510;SDS011;35413;48.776;9.204;2022-11-20T07:04:37;0.98;;;0.65;;
49510;SDS011;35413;48.776;9.204;2022-11-20T07:07:03;1.55;;;0.82;;
49510;SDS011;35413;48.776;9.204;2022-11-20T07:09:30;1.13;;;0.50;;
49510;SDS011;35413;48.776;9.204;2022-11-20T07:11:56;0.75;;;0.70;;
49510;SDS011;35413;48.776;9.204;2022-11-20T07:14:22;0.95;;;0.50;;
49510;SDS011;35413;48.776;9.204;2022-11-20T07:16:48;1.02;;;0.80;;
49510;SDS011;35413;48.776;9.204;2022-11-20T07:19:14;0.60;;;0.50;;
49510;SDS011;35413;48.776;9.204;2022-11-20T07:21:40;0.68;;;0.50;;
49510;SDS011;35413;48.776;9.204;2022-11-20T07:24:06;0.70;;;0.50;;
49510;SDS011;35413;48.776;9.204;2022-11-20T07:26:32;1.55;;;0.63;;
49510;SDS011;35413;48.776;9.204;2022-11-20T07:28:58;4.60;;;1.10;;
49510;SDS011;35413;48.776;9.204;2022-11-20T07:31:24;1.00;;;0.70;;
49510;SDS011;35413;48.776;9.204;2022-11-20T07:33:50;0.82;;;0.75;;
49510;SDS011;35413;48.776;9.204;2022-11-20T07:36:16;0.60;;;0.60;;
49510;SDS011;35413;48.776;9.204;2022-11-20T07:38:46;1.20;;;0.70;;
49510;SDS011;35413;48.776;9.204;2022-11-20T07:41:12;2.67;;;0.68;;
49510;SDS011;35413;48.776;9.204;2022-11-20T07:43:38;1.92;;;0.60;;
49510;SDS011;35413;48.776;9.204;2022-11-20T07:46:04;4.85;;;1.08;;
49510;SDS011;35413;48.776;9.204;2022-11-20T07:48:30;1.30;;;0.60;;
49510;SDS011;35413;48.776;9.204;2022-11-20T07:50:56;2.63;;;0.70;;
49510;SDS011;35413;48.776;9.204;2022-11-20T07:53:23;4.30;;;1.00;;
49510;SDS011;35413;48.776;9.204;2022-11-20T07:55:49;0.98;;;0.70;;
49510;SDS011;35413;48.776;9.204;2022-11-20T07:58:17;2.47;;;0.90;;
49510;SDS011;35413;48.776;9.204;2022-11-20T08:00:43;2.83;;;1.13;;
49510;SDS011;35413;48.776;9.204;2022-11-20T08:03:09;6.15;;;1.00;;
49510;SDS011;35413;48.776;9.204;2022-11-20T08:05:35;3.47;;;0.70;;
49510;SDS011;35413;48.776;9.204;2022-11-20T08:08:02;3.20;;;0.68;;
49510;SDS011;35413;48.776;9.204;2022-11-20T08:10:28;1.17;;;0.80;;
49510;SDS011;35413;48.776;9.204;2022-11-20T08:12:54;3.35;;;1.20;;
49510;SDS011;35413;48.776;9.204;2022-11-20T08:15:39;2.65;;;0.70;;
49510;SDS011;35413;48.776;9.204;2022-11-20T08:18:06;2.17;;;0.77;;
49510;SDS011;35413;48.776;9.204;2022-11-20T08:20:33;9.48;;;0.88;;
49510;SDS011;35413;48.776;9.204;2022-11-20T08:23:00;3.20;;;0.82;;
49510;SDS011;35413;48.776;9.204;2022-11-20T08:25:27;3.15;;;0.90;;
49510;SDS011;35413;48.776;9.204;2022-11-20T08:27:53;0.65;;;0.60;;
49510;SDS011;35413;48.776;9.204;2022-11-20T08:30:19;0.95;;;0.65;;
49510;SDS011;35413;48.776;9.204;2022-11-20T08:32:45;3.10;;;0.90;;
49510;SDS011;35413;48.776;9.204;2022-11-20T08:35:11;1.70;;;0.50;;
49510;SDS011;35413;48.776;9.204;2022-11-20T08:37:37;1.23;;;0.90;;
49510;SDS011;35413;48.776;9.204;2022-11-20T08:40:06;2.28;;;1.35;;
49510;SDS011;35413;48.776;9.204;2022-11-20T08:42:32;1.55;;;0.68;;
49510;SDS011;35413;48.776;9.204;2022-11-20T08:44:58;2.63;;;0.75;;
49510;SDS011;35413;48.776;9.204;2022-11-20T08:47:24;10.07;;;1.20;;
49510;SDS011;35413;48.776;9.204;2022-11-20T08:49:50;2.55;;;0.65;;
49510;SDS011;35413;48.776;9.204;2022-11-20T08:52:16;4.38;;;1.33;;
49510;SDS011;35413;48.776;9.204;2022-11-20T08:54:42;2.97;;;0.70;;
49510;SDS011;35413;48.776;9.204;2022-11-20T08:57:08;1.80;;;0.70;;
49510;SDS011;35413;48.776;9.204;2022-11-20T08:59:34;1.75;;;0.80;;
49510;SDS011;35413;48.776;9.204;2022-11-20T09:02:00;3.63;;;1.00;;
49510;SDS011;35413;48.776;9.204;2022-11-20T09:04:26;3.10;;;0.80;;
49510;SDS011;35413;48.776;9.204;2022-11-20T09:06:52;1.42;;;0.68;;
49510;SDS011;35413;48.776;9.204;2022-11-20T09:09:18;3.75;;;0.98;;
49510;SDS011;35413;48.776;9.204;2022-11-20T09:11:44;2.53;;;0.63;;
49510;SDS011;35413;48.776;9.204;2022-11-20T09:14:10;3.92;;;0.60;;
49510;SDS011;35413;48.776;9.204;2022-11-20T09:16:36;5.35;;;0.70;;
49510;SDS011;35413;48.776;9.204;2022-11-20T09:19:02;1.60;;;0.93;;
49510;SDS011;35413;48.776;9.204;2022-11-20T09:21:28;4.22;;;0.70;;
49510;SDS011;35413;48.776;9.204;2022-11-20T09:23:54;6.78;;;1.08;;
49510;SDS011;35413;48.776;9.204;2022-11-20T09:26:20;4.35;;;0.80;;
49510;SDS011;35413;48.776;9.204;2022-11-20T09:28:45;1.33;;;0.70;;
49510;SDS011;35413;48.776;9.204;2022-11-20T09:31:25;4.38;;;0.75;;
49510;SDS011;35413;48.776;9.204;2022-11-20T09:33:51;3.47;;;0.68;;
49510;SDS011;35413;48.776;9.204;2022-11-20T09:36:17;3.97;;;0.80;;
49510;SDS011;35413;48.776;9.204;2022-11-20T09:38:44;3.40;;;0.93;;
49510;SDS011;35413;48.776;9.204;2022-11-20T09:41:18;2.85;;;0.90;;
49510;SDS011;35413;48.776;9.204;2022-11-20T09:44:01;4.30;;;0.50;;
49510;SDS011;35413;48.776;9.204;2022-11-20T09:54:31;1.60;;;0.65;;
49510;SDS011;35413;48.776;9.204;2022-11-20T09:57:02;1.33;;;0.60;;
49510;SDS011;35413;48.776;9.204;2022-11-20T09:59:34;1.38;;;0.60;;
49510;SDS011;35413;48.776;9.204;2022-11-20T10:02:02;0.88;;;0.47;;
49510;SDS011;35413;48.776;9.204;2022-11-20T10:04:32;1.13;;;0.63;;
49510;SDS011;35413;48.776;9.204;2022-11-20T10:07:03;2.25;;;0.88;;
49510;SDS011;35413;48.776;9.204;2022-11-20T10:09:32;1.67;;;0.65;;
49510;SDS011;35413;48.776;9.204;2022-11-20T10:14:41;2.45;;;0.55;;
49510;SDS011;35413;48.776;9.204;2022-11-20T10:20:35;1.02;;;0.50;;
49510;SDS011;35413;48.776;9.204;2022-11-20T10:30:55;3.47;;;0.47;;
49510;SDS011;35413;48.776;9.204;2022-11-20T10:33:23;0.65;;;0.50;;
49510;SDS011;35413;48.776;9.204;2022-11-20T10:35:54;0.68;;;0.47;;
49510;SDS011;35413;48.776;9.204;2022-11-20T10:38:26;3.80;;;0.70;;
49510;SDS011;35413;48.776;9.204;2022-11-20T10:40:57;1.02;;;0.75;;
49510;SDS011;35413;48.776;9.204;2022-11-20T10:43:45;1.75;;;0.70;;
49510;SDS011;35413;48.776;9.204;2022-11-20T10:46:15;1.30;;;0.57;;
49510;SDS011;35413;48.776;9.204;2022-11-20T10:48:43;1.98;;;0.40;;
49510;SDS011;35413;48.776;9.204;2022-11-20T10:59:00;1.15;;;0.40;;
49510;SDS011;35413;48.776;9.204;2022-11-20T11:01:28;2.25;;;0.60;;
49510;SDS011;35413;48.776;9.204;2022-11-20T11:03:54;0.63;;;0.50;;
49510;SDS011;35413;48.776;9.204;2022-11-20T11:06:40;1.83;;;0.40;;
49510;SDS011;35413;48.776;9.204;2022-11-20T11:09:19;2.58;;;0.63;;
49510;SDS011;35413;48.776;9.204;2022-11-20T11:11:47;0.60;;;0.40;;
49510;SDS011;35413;48.776;9.204;2022-11-20T11:14:14;0.90;;;0.52;;
49510;SDS011;35413;48.776;9.204;2022-11-20T11:16:50;1.25;;;0.50;;
49510;SDS011;35413;48.776;9.204;2022-11-20T11:19:17;0.30;;;0.30;;
49510;SDS011;35413;48.776;9.204;2022-11-20T11:21:46;0.50;;;0.38;;
49510;SDS011;35413;48.776;9.204;2022-11-20T11:24:26;0.60;;;0.40;;
49510;SDS011;35413;48.776;9.204;2022-11-20T11:27:00;2.53;;;0.68;;
49510;SDS011;35413;48.776;9.204;2022-11-20T11:29:29;1.42;;;0.50;;
49510;SDS011;35413;48.776;9.204;2022-11-20T11:32:10;0.73;;;0.55;;
49510;SDS011;35413;48.776;9.204;2022-11-20T11:34:37;0.77;;;0.40;;
49510;SDS011;35413;48.776;9.204;2022-11-20T11:37:03;0.85;;;0.30;;
49510;SDS011;35413;48.776;9.204;2022-11-20T11:39:30;0.63;;;0.40;;
49510;SDS011;35413;48.776;9.204;2022-11-20T11:42:00;1.88;;;0.88;;
49510;SDS011;35413;48.776;9.204;2022-11-20T11:44:33;1.42;;;0.40;;
49510;SDS011;35413;48.776;9.204;2022-11-20T11:47:25;0.63;;;0.47;;
49510;SDS011;35413;48.776;9.204;2022-11-20T11:52:27;1.45;;;0.70;;
49510;SDS011;35413;48.776;9.204;2022-11-20T11:55:01;0.98;;;0.50;;
49510;SDS011;35413;48.776;9.204;2022-11-20T12:07:59;0.60;;;0.40;;
49510;SDS011;35413;48.776;9.204;2022-11-20T12:13:20;0.43;;;0.40;;
49510;SDS011;35413;48.776;9.204;2022-11-20T12:15:48;1.00;;;0.60;;
49510;SDS011;35413;48.776;9.204;2022-11-20T12:18:15;1.45;;;0.70;;
49510;SDS011;35413;48.776;9.204;2022-11-20T12:20:45;1.77;;;0.40;;
49510;SDS011;35413;48.776;9.204;2022-11-20T12:23:18;0.88;;;0.40;;
49510;SDS011;35413;48.776;9.204;2022-11-20T12:25:50;1.02;;;0.57;;
49510;SDS011;35413;48.776;9.204;2022-11-20T12:30:50;2.25;;;0.90;;
49510;SDS011;35413;48.776;9.204;2022-11-20T12:36:09;0.75;;;0.40;;
49510;SDS011;35413;48.776;9.204;2022-11-20T12:50:02;0.40;;;0.40;;
49510;SDS011;35413;48.776;9.204;2022-11-20T12:52:36;0.80;;;0.50;;
49510;SDS011;35413;48.776;9.204;2022-11-20T12:57:45;2.30;;;1.13;;
49510;SDS011;35413;48.776;9.204;2022-11-20T13:08:19;1.92;;;0.50;;
49510;SDS011;35413;48.776;9.204;2022-11-20T13:10:50;0.93;;;0.60;;
49510;SDS011;35413;48.776;9.204;2022-11-20T13:15:58;1.40;;;0.60;;
49510;SDS011;35413;48.776;9.204;2022-11-20T13:18:25;2.50;;;0.70;;
49510;SDS011;35413;48.776;9.204;2022-11-20T13:20:52;2.80;;;0.70;;
49510;SDS011;35413;48.776;9.204;2022-11-20T13:23:25;3.03;;;0.50;;
49510;SDS011;35413;48.776;9.204;2022-11-20T13:26:01;3.08;;;0.70;;
49510;SDS011;35413;48.776;9.204;2022-11-20T13:28:28;2.15;;;0.82;;
49510;SDS011;35413;48.776;9.204;2022-11-20T13:30:55;1.58;;;0.50;;
49510;SDS011;35413;48.776;9.204;2022-11-20T13:33:23;4.85;;;0.40;;
49510;SDS011;35413;48.776;9.204;2022-11-20T13:35:58;2.92;;;0.68;;
49510;SDS011;35413;48.776;9.204;2022-11-20T13:38:24;1.30;;;0.50;;
49510;SDS011;35413;48.776;9.204;2022-11-20T13:40:57;1.90;;;0.68;;
49510;SDS011;35413;48.776;9.204;2022-11-20T13:45:56;2.55;;;0.60;;
49510;SDS011;35413;48.776;9.204;2022-11-20T13:48:23;1.23;;;0.60;;
49510;SDS011;35413;48.776;9.204;2022-11-20T13:51:07;1.77;;;0.52;;
49510;SDS011;35413;48.776;9.204;2022-11-20T14:01:30;1.58;;;0.65;;
49510;SDS011;35413;48.776;9.204;2022-11-20T14:03:57;1.50;;;0.50;;
49510;SDS011;35413;48.776;9.204;2022-11-20T14:06:27;1.35;;;0.65;;
49510;SDS011;35413;48.776;9.204;2022-11-20T14:08:54;0.93;;;0.43;;
49510;SDS011;35413;48.776;9.204;2022-11-20T14:11:22;0.70;;;0.50;;
49510;SDS011;35413;48.776;9.204;2022-11-20T14:14:02;0.70;;;0.60;;
49510;SDS011;35413;48.776;9.204;2022-11-20T14:16:30;1.25;;;0.40;;
49510;SDS011;35413;48.776;9.204;2022-11-20T14:18:57;0.60;;;0.50;;
49510;SDS011;35413;48.776;9.204;2022-11-20T14:21:28;0.70;;;0.47;;
49510;SDS011;35413;48.776;9.204;2022-11-20T14:24:18;0.55;;;0.40;;
49510;SDS011;35413;48.776;9.204;2022-11-20T14:26:41;0.95;;;0.40;;
49510;SDS011;35413;48.776;9.204;2022-11-20T14:31:42;1.15;;;0.80;;
49510;SDS011;35413;48.776;9.204;2022-11-20T14:34:22;1.05;;;0.57;;
49510;SDS011;35413;48.776;9.204;2022-11-20T14:36:49;2.05;;;0.60;;
49510;SDS011;35413;48.776;9.204;2022-11-20T14:39:37;0.75;;;0.40;;
49510;SDS011;35413;48.776;9.204;2022-11-20T14:42:11;1.27;;;1.10;;
49510;SDS011;35413;48.776;9.204;2022-11-20T14:44:40;1.00;;;0.40;;
49510;SDS011;35413;48.776;9.204;2022-11-20T14:47:08;1.70;;;0.55;;
49510;SDS011;35413;48.776;9.204;2022-11-20T14:49:35;1.75;;;0.52;;
49510;SDS011;35413;48.776;9.204;2022-11-20T14:52:11;0.85;;;0.50;;
49510;SDS011;35413;48.776;9.204;2022-11-20T14:54:48;1.20;;;0.55;;
49510;SDS011;35413;48.776;9.204;2022-11-20T14:57:25;1.75;;;0.55;;
49510;SDS011;35413;48.776;9.204;2022-11-20T14:59:51;1.95;;;0.70;;
49510;SDS011;35413;48.776;9.204;2022-11-20T15:02:29;0.93;;;0.60;;
49510;SDS011;35413;48.776;9.204;2022-11-20T15:04:59;1.40;;;0.80;;
49510;SDS011;35413;48.776;9.204;2022-11-20T15:07:35;0.98;;;0.50;;
49510;SDS011;35413;48.776;9.204;2022-11-20T15:10:08;1.15;;;0.60;;
49510;SDS011;35413;48.776;9.204;2022-11-20T15:12:36;0.93;;;0.52;;
49510;SDS011;35413;48.776;9.204;2022-11-20T15:15:03;0.80;;;0.60;;
49510;SDS011;35413;48.776;9.204;2022-11-20T15:17:30;1.33;;;0.50;;
49510;SDS011;35413;48.776;9.204;2022-11-20T15:19:56;2.67;;;0.75;;
49510;SDS011;35413;48.776;9.204;2022-11-20T15:22:22;0.68;;;0.40;;
49510;SDS011;35413;48.776;9.204;2022-11-20T15:24:48;1.38;;;0.90;;
49510;SDS011;35413;48.776;9.204;2022-11-20T15:27:14;0.57;;;0.40;;
49510;SDS011;35413;48.776;9.204;2022-11-20T15:29:41;0.70;;;0.50;;
49510;SDS011;35413;48.776;9.204;2022-11-20T15:32:07;0.98;;;0.38;;
49510;SDS011;35413;48.776;9.204;2022-11-20T15:34:34;0.95;;;0.57;;
49510;SDS011;35413;48.776;9.204;2022-11-20T15:37:00;1.35;;;0.60;;
49510;SDS011;35413;48.776;9.204;2022-11-20T15:39:26;1.48;;;0.80;;
49510;SDS011;35413;48.776;9.204;2022-11-20T15:41:51;1.33;;;0.52;;
49510;SDS011;35413;48.776;9.204;2022-11-20T15:44:17;1.15;;;0.80;;
49510;SDS011;35413;48.776;9.204;2022-11-20T15:46:43;1.08;;;0.75;;
49510;SDS011;35413;48.776;9.204;2022-11-20T15:49:14;1.60;;;0.50;;
49510;SDS011;35413;48.776;9.204;2022-11-20T15:51:41;1.13;;;0.50;;
49510;SDS011;35413;48.776;9.204;2022-11-20T15:54:12;1.05;;;0.60;;
49510;SDS011;35413;48.776;9.204;2022-11-20T15:56:39;2.08;;;0.70;;
49510;SDS011;35413;48.776;9.204;2022-11-20T15:59:05;1.08;;;0.63;;
49510;SDS011;35413;48.776;9.204;2022-11-20T16:01:31;1.70;;;0.65;;
49510;SDS011;35413;48.776;9.204;2022-11-20T16:03:56;1.23;;;0.65;;
49510;SDS011;35413;48.776;9.204;2022-11-20T16:06:23;3.22;;;0.60;;
49510;SDS011;35413;48.776;9.204;2022-11-20T16:08:49;1.13;;;0.52;;
49510;SDS011;35413;48.776;9.204;2022-11-20T16:11:15;1.08;;;0.70;;
49510;SDS011;35413;48.776;9.204;2022-11-20T16:13:42;0.77;;;0.50;;
49510;SDS011;35413;48.776;9.204;2022-11-20T16:16:30;0.90;;;0.60;;
49510;SDS011;35413;48.776;9.204;2022-11-20T16:18:56;1.10;;;0.50;;
49510;SDS011;35413;48.776;9.204;2022-11-20T16:21:23;1.42;;;0.70;;